createdAt,value
2023-04-27T00:01:20.639Z,6.63
2023-04-27T00:06:23.413Z,6.20
2023-04-27T00:11:26.409Z,6.45
2023-04-27T00:16:30.801Z,5.28
2023-04-27T00:21:33.574Z,5.97
2023-04-27T00:26:36.314Z,9.00
2023-04-27T00:31:40.523Z,10.85
2023-04-27T00:36:43.409Z,17.67
2023-04-27T00:41:46.158Z,11.68
2023-04-27T00:46:50.471Z,8.32
2023-04-27T00:51:53.255Z,9.45
2023-04-27T00:56:59.477Z,7.13
2023-04-27T01:02:03.864Z,16.02
2023-04-27T01:07:06.752Z,21.45
2023-04-27T01:12:09.520Z,14.35
2023-04-27T01:17:14.112Z,13.23
2023-04-27T01:22:16.878Z,17.38
2023-04-27T01:27:21.011Z,11.88
2023-04-27T01:32:23.889Z,8.63
2023-04-27T01:37:28.244Z,7.57
2023-04-27T01:42:32.369Z,7.70
2023-04-27T01:47:36.269Z,6.90
2023-04-27T01:52:39.099Z,6.75
2023-04-27T01:57:43.263Z,5.85
2023-04-27T02:02:46.493Z,6.38
2023-04-27T02:07:49.950Z,6.05
2023-04-27T02:12:54.127Z,6.57
2023-04-27T02:17:57.372Z,7.00
2023-04-27T02:23:01.026Z,8.13
2023-04-27T02:28:05.628Z,6.55
2023-04-27T02:33:09.183Z,6.78
2023-04-27T02:38:13.543Z,7.93
2023-04-27T02:43:17.648Z,6.75
2023-04-27T02:48:20.460Z,7.55
2023-04-27T02:53:23.288Z,5.82
2023-04-27T02:58:27.484Z,6.65
2023-04-27T03:03:30.212Z,6.00
2023-04-27T03:08:33.170Z,5.38
2023-04-27T03:13:41.960Z,6.25
2023-04-27T03:18:44.795Z,6.05
2023-04-27T03:23:47.556Z,6.30
2023-04-27T03:28:51.700Z,5.45
2023-04-27T03:33:54.632Z,5.80
2023-04-27T03:38:58.432Z,5.95
2023-04-27T03:44:03.182Z,5.13
2023-04-27T03:49:06.336Z,5.97
2023-04-27T03:54:10.061Z,5.38
2023-04-27T03:59:14.672Z,6.95
2023-04-27T04:04:24.930Z,5.82
2023-04-27T04:09:27.908Z,6.50
2023-04-27T04:14:32.504Z,5.63
2023-04-27T04:19:35.823Z,6.35
2023-04-27T04:24:40.100Z,6.78
2023-04-27T04:29:44.271Z,5.53
2023-04-27T04:34:51.360Z,6.20
2023-04-27T04:39:56.271Z,5.45
2023-04-27T04:45:02.343Z,6.28
2023-04-27T04:50:07.147Z,6.47
2023-04-27T04:55:11.598Z,7.65
2023-04-27T05:00:16.780Z,6.28
2023-04-27T05:05:21.493Z,6.50
2023-04-27T05:10:24.485Z,6.25
2023-04-27T05:15:29.291Z,6.78
2023-04-27T05:20:32.532Z,12.18
2023-04-27T05:25:41.327Z,17.38
2023-04-27T05:30:46.289Z,8.60
2023-04-27T05:35:49.902Z,5.70
2023-04-27T05:40:56.315Z,7.40
2023-04-27T05:46:00.369Z,6.57
2023-04-27T05:51:04.390Z,6.30
2023-04-27T05:56:10.434Z,7.25
2023-04-27T06:01:16.417Z,7.20
2023-04-27T06:06:20.389Z,6.72
2023-04-27T06:11:24.224Z,6.15
2023-04-27T06:16:29.406Z,7.25
2023-04-27T06:21:34.101Z,5.83
2023-04-27T06:26:37.010Z,5.82
2023-04-27T06:31:42.928Z,5.95
2023-04-27T06:36:45.782Z,5.32
2023-04-27T06:41:50.399Z,5.68
2023-04-27T06:46:56.291Z,5.68
2023-04-27T06:51:59.071Z,5.45
2023-04-27T06:57:03.278Z,5.00
2023-04-27T07:02:09.363Z,5.78
2023-04-27T07:07:12.374Z,5.90
2023-04-27T07:12:15.148Z,5.95
2023-04-27T07:17:19.484Z,6.70
2023-04-27T07:22:24.575Z,5.45
2023-04-27T07:27:30.155Z,5.40
2023-04-27T07:32:34.432Z,5.88
2023-04-27T07:37:38.429Z,5.25
2023-04-27T07:42:41.357Z,5.50
2023-04-27T07:47:46.469Z,5.93
2023-04-27T07:52:49.262Z,6.03
2023-04-27T07:57:54.986Z,5.05
2023-04-27T08:02:59.712Z,7.00
2023-04-27T08:08:02.972Z,4.65
2023-04-27T08:13:09.715Z,6.43
2023-04-27T08:18:16.511Z,3.78
2023-04-27T08:23:20.486Z,5.22
2023-04-27T08:28:24.509Z,4.72
2023-04-27T08:33:32.410Z,5.40
2023-04-27T08:38:36.497Z,4.25
2023-04-27T08:43:39.176Z,5.05
2023-04-27T08:48:43.230Z,4.45
2023-04-27T08:53:51.554Z,4.85
2023-04-27T08:58:57.367Z,4.63
2023-04-27T09:04:03.114Z,5.50
2023-04-27T09:09:07.206Z,5.55
2023-04-27T09:14:18.428Z,5.80
2023-04-27T09:19:27.386Z,5.97
2023-04-27T09:24:31.367Z,5.15
2023-04-27T09:29:36.183Z,6.25
2023-04-27T09:34:41.904Z,4.85
2023-04-27T09:39:47.382Z,5.60
2023-04-27T09:44:54.323Z,4.82
2023-04-27T09:50:01.566Z,5.97
2023-04-27T09:55:06.968Z,5.00
2023-04-27T10:00:41.036Z,5.30
2023-04-27T10:06:13.576Z,4.78
2023-04-27T10:11:19.151Z,5.93
2023-04-27T10:16:24.511Z,5.20
2023-04-27T10:21:28.594Z,6.13
2023-04-27T10:26:33.484Z,5.00
2023-04-27T10:31:37.598Z,5.55
2023-04-27T10:36:42.212Z,5.57
2023-04-27T10:41:53.977Z,5.22
2023-04-27T10:47:00.667Z,5.60
2023-04-27T10:52:07.337Z,5.72
2023-04-27T10:57:13.567Z,5.72
2023-04-27T11:02:17.768Z,5.32
2023-04-27T11:07:26.709Z,6.13
2023-04-27T11:12:33.466Z,5.70
2023-04-27T11:17:38.361Z,5.43
2023-04-27T11:22:46.093Z,4.73
2023-04-27T11:27:50.511Z,6.10
2023-04-27T11:32:54.816Z,5.93
2023-04-27T11:37:59.479Z,4.85
2023-04-27T11:43:04.414Z,5.28
2023-04-27T11:48:07.734Z,6.50
2023-04-27T11:53:11.932Z,5.18
2023-04-27T11:58:18.801Z,5.63
2023-04-27T12:03:23.017Z,4.53
2023-04-27T12:08:26.332Z,4.30
2023-04-27T12:13:30.421Z,3.97
2023-04-27T12:18:33.487Z,3.33
2023-04-27T12:23:38.311Z,3.75
2023-04-27T12:28:42.507Z,3.75
2023-04-27T12:33:45.551Z,4.47
2023-04-27T12:38:49.717Z,4.63
2023-04-27T12:43:53.771Z,4.47
2023-04-27T12:48:57.322Z,4.03
2023-04-27T12:54:01.057Z,4.10
2023-04-27T12:59:06.684Z,3.72
2023-04-27T13:04:11.350Z,4.03
2023-04-27T13:09:14.337Z,4.55
2023-04-27T13:14:18.424Z,4.00
2023-04-27T13:19:21.560Z,3.20
2023-04-27T13:24:24.840Z,3.88
2023-04-27T13:29:31.103Z,4.25
2023-04-27T13:34:34.833Z,4.43
2023-04-27T13:39:38.298Z,3.90
2023-04-27T13:44:43.086Z,3.78
2023-04-27T13:49:46.739Z,4.10
2023-04-27T13:54:51.467Z,3.97
2023-04-27T13:59:56.649Z,4.15
2023-04-27T14:04:59.449Z,3.42
2023-04-27T14:10:02.831Z,4.25
2023-04-27T14:15:07.794Z,3.25
2023-04-27T14:20:12.359Z,3.60
2023-04-27T14:25:15.824Z,5.05
2023-04-27T14:30:22.930Z,4.72
2023-04-27T14:35:27.439Z,3.92
2023-04-27T14:40:30.397Z,4.05
2023-04-27T14:45:47.850Z,3.80
2023-04-27T14:50:53.857Z,3.17
2023-04-27T14:55:56.653Z,3.63
2023-04-27T15:01:02.775Z,3.88
2023-04-27T15:06:06.879Z,3.38
2023-04-27T15:11:09.943Z,4.03
2023-04-27T15:16:14.021Z,3.05
2023-04-27T15:21:16.784Z,3.42
2023-04-27T15:26:19.598Z,3.38
2023-04-27T15:31:26.130Z,3.05
2023-04-27T15:36:31.714Z,3.70
2023-04-27T15:41:35.705Z,3.38
2023-04-27T15:46:39.938Z,3.47
2023-04-27T15:51:42.752Z,3.30
2023-04-27T15:56:45.912Z,3.30
2023-04-27T16:01:50.879Z,3.47
2023-04-27T16:06:54.450Z,3.05
2023-04-27T16:11:59.077Z,2.67
2023-04-27T16:17:03.184Z,2.35
2023-04-27T16:22:06.958Z,2.95
2023-04-27T16:27:11.554Z,2.45
2023-04-27T16:32:17.936Z,2.97
2023-04-27T16:37:20.840Z,1.92
2023-04-27T16:42:23.539Z,3.33
2023-04-27T16:47:27.950Z,3.03
2023-04-27T16:52:30.975Z,3.20
2023-04-27T16:57:33.769Z,2.85
2023-04-27T17:02:41.246Z,3.20
2023-04-27T17:07:45.999Z,3.05
2023-04-27T17:12:49.899Z,4.88
2023-04-27T17:17:54.698Z,3.25
2023-04-27T17:22:59.026Z,3.42
2023-04-27T17:28:03.781Z,4.05
2023-04-27T17:33:07.933Z,4.63
2023-04-27T17:38:12.161Z,3.22
2023-04-27T17:43:16.228Z,3.33
2023-04-27T17:48:21.056Z,3.05
2023-04-27T17:53:23.875Z,2.90
2023-04-27T17:58:28.090Z,2.55
2023-04-27T18:03:32.402Z,3.38
2023-04-27T18:08:38.094Z,3.42
2023-04-27T18:13:40.997Z,3.03
2023-04-27T18:18:47.208Z,3.30
2023-04-27T18:23:51.068Z,3.45
2023-04-27T18:28:54.646Z,4.28
2023-04-27T18:34:00.002Z,3.78
2023-04-27T18:39:03.186Z,3.53
2023-04-27T18:44:06.463Z,3.80
2023-04-27T18:49:11.042Z,4.10
2023-04-27T18:54:13.792Z,5.15
2023-04-27T18:59:16.548Z,4.80
2023-04-27T19:04:20.938Z,5.18
2023-04-27T19:09:24.112Z,4.90
2023-04-27T19:14:26.856Z,6.07
2023-04-27T19:19:33.323Z,5.00
2023-04-27T19:24:37.846Z,4.57
2023-04-27T19:29:52.117Z,4.28
2023-04-27T19:34:58.078Z,5.63
2023-04-27T19:40:00.935Z,5.32
2023-04-27T19:45:04.821Z,4.65
2023-04-27T19:50:09.551Z,6.40
2023-04-27T19:55:12.590Z,5.07
2023-04-27T20:00:16.097Z,5.03
2023-04-27T20:05:20.403Z,5.10
2023-04-27T20:10:23.820Z,4.50
2023-04-27T20:15:26.813Z,5.03
2023-04-27T20:20:31.128Z,5.00
2023-04-27T20:25:33.992Z,6.10
2023-04-27T20:30:36.874Z,5.63
2023-04-27T20:35:42.184Z,7.32
2023-04-27T20:40:45.926Z,7.72
2023-04-27T20:45:48.714Z,6.35
2023-04-27T20:50:52.994Z,6.65
2023-04-27T20:55:55.977Z,6.85
2023-04-27T21:00:59.165Z,6.47
2023-04-27T21:06:04.245Z,6.30
2023-04-27T21:11:07.928Z,6.43
2023-04-27T21:16:11.427Z,6.60
2023-04-27T21:21:15.637Z,6.00
2023-04-27T21:26:19.810Z,5.78
2023-04-27T21:31:22.823Z,5.95
2023-04-27T21:36:27.064Z,6.07
2023-04-27T21:41:29.838Z,5.88
2023-04-27T21:46:32.689Z,5.43
2023-04-27T21:51:36.909Z,5.57
2023-04-27T21:56:39.676Z,5.78
2023-04-27T22:01:42.892Z,5.28
2023-04-27T22:06:47.375Z,5.72
2023-04-27T22:11:50.135Z,6.00
2023-04-27T22:16:53.087Z,5.10
2023-04-27T22:21:58.297Z,4.30
2023-04-27T22:27:01.995Z,5.65
2023-04-27T22:32:05.076Z,4.93
2023-04-27T22:37:09.549Z,4.55
2023-04-27T22:42:12.348Z,4.72
2023-04-27T22:47:15.177Z,5.00
2023-04-27T22:52:20.069Z,4.60
2023-04-27T22:57:22.768Z,4.63
2023-04-27T23:02:25.598Z,4.40
2023-04-27T23:07:29.994Z,4.57
2023-04-27T23:12:33.132Z,4.28
2023-04-27T23:17:36.025Z,4.35
2023-04-27T23:22:43.623Z,4.13
2023-04-27T23:32:49.281Z,4.65
2023-04-27T23:37:53.438Z,3.75
2023-04-27T23:42:56.224Z,4.65
2023-04-27T23:48:00.171Z,3.95
2023-04-27T23:53:04.601Z,4.40
2023-04-27T23:58:07.288Z,5.38
